createdAt,value
2018-11-04T00:00:54.681Z,97104.36
2018-11-04T00:03:23.980Z,97100.20
2018-11-04T00:05:54.288Z,97100.47
2018-11-04T00:08:25.193Z,97090.22
2018-11-04T00:10:54.517Z,97096.66
2018-11-04T00:13:23.900Z,97091.52
2018-11-04T00:15:53.200Z,97090.40
2018-11-04T00:18:22.373Z,97087.81
2018-11-04T00:20:52.385Z,97082.92
2018-11-04T00:23:22.823Z,97071.59
2018-11-04T00:25:52.076Z,97070.59
2018-11-04T00:28:21.500Z,97069.02
2018-11-04T00:30:50.799Z,97061.83
2018-11-04T00:33:19.970Z,97066.68
2018-11-04T00:35:49.270Z,97059.44
2018-11-04T00:38:18.872Z,97059.52
2018-11-04T00:40:48.216Z,97065.72
2018-11-04T00:43:17.504Z,97066.72
2018-11-04T00:45:46.724Z,97066.20
2018-11-04T00:48:17.717Z,97066.46
2018-11-04T00:50:46.933Z,97074.90
2018-11-04T00:53:16.249Z,97067.97
2018-11-04T00:55:48.845Z,97075.16
2018-11-04T00:58:18.427Z,97073.09
2018-11-04T01:00:47.997Z,97071.05
2018-11-04T01:03:18.708Z,97062.83
2018-11-04T01:05:48.312Z,97062.30
2018-11-04T01:08:17.649Z,97061.02
2018-11-04T01:10:47.908Z,97053.54
2018-11-04T01:13:18.308Z,97054.83
2018-11-04T01:15:47.624Z,97055.10
2018-11-04T01:18:16.792Z,97047.39
2018-11-04T01:20:46.418Z,97051.99
2018-11-04T01:23:15.797Z,97046.06
2018-11-04T01:25:46.707Z,97041.19
2018-11-04T01:28:18.766Z,97038.11
2018-11-04T01:30:48.284Z,97041.92
2018-11-04T01:33:17.621Z,97031.91
2018-11-04T01:35:46.932Z,97039.39
2018-11-04T01:38:16.251Z,97031.67
2018-11-04T01:40:47.460Z,97026.02
2018-11-04T01:43:16.661Z,97021.41
2018-11-04T01:45:45.953Z,97023.67
2018-11-04T01:48:15.251Z,97024.47
2018-11-04T01:50:44.546Z,97021.61
2018-11-04T01:53:15.639Z,97015.95
2018-11-04T01:55:45.196Z,97009.75
2018-11-04T01:58:14.393Z,97013.61
2018-11-04T02:00:43.614Z,97007.42
2018-11-04T02:03:15.172Z,96993.05
2018-11-04T02:05:45.695Z,96986.38
2018-11-04T02:08:15.373Z,96982.77
2018-11-04T02:10:44.602Z,96978.39
2018-11-04T02:13:15.798Z,96973.75
2018-11-04T02:15:45.978Z,96971.95
2018-11-04T02:18:15.285Z,96966.53
2018-11-04T02:20:44.563Z,96965.78
2018-11-04T02:23:13.835Z,96968.30
2018-11-04T02:25:43.353Z,96968.85
2018-11-04T02:28:12.655Z,96969.13
2018-11-04T02:30:41.983Z,96971.69
2018-11-04T02:33:13.131Z,96974.25
2018-11-04T02:35:42.432Z,96975.00
2018-11-04T02:38:11.676Z,96970.08
2018-11-04T02:40:41.008Z,96969.27
2018-11-04T02:43:11.050Z,96968.79
2018-11-04T02:45:42.235Z,96963.15
2018-11-04T02:48:11.552Z,96952.36
2018-11-04T02:50:40.735Z,96948.76
2018-11-04T02:53:10.086Z,96949.02
2018-11-04T02:55:39.468Z,96941.05
2018-11-04T02:58:09.272Z,96939.23
2018-11-04T03:00:38.482Z,96931.02
2018-11-04T03:03:08.099Z,96937.94
2018-11-04T03:05:37.346Z,96941.98
2018-11-04T03:08:07.478Z,96951.52
2018-11-04T03:10:36.769Z,96950.75
2018-11-04T03:13:06.138Z,96945.08
2018-11-04T03:15:36.833Z,96948.93
2018-11-04T03:18:08.343Z,96938.65
2018-11-04T03:20:37.700Z,96932.98
2018-11-04T03:23:06.913Z,96931.20
2018-11-04T03:25:36.163Z,96930.23
2018-11-04T03:28:07.284Z,96936.33
2018-11-04T03:30:36.843Z,96925.55
2018-11-04T03:33:06.375Z,96913.97
2018-11-04T03:35:35.635Z,96903.95
2018-11-04T03:38:04.877Z,96915.32
2018-11-04T03:40:35.133Z,96907.61
2018-11-04T03:43:04.391Z,96906.06
2018-11-04T03:45:33.821Z,96905.52
2018-11-04T03:48:03.147Z,96909.59
2018-11-04T03:50:34.473Z,96898.02
2018-11-04T03:53:06.174Z,96894.99
2018-11-04T03:55:37.751Z,96897.00
2018-11-04T03:58:07.390Z,96897.00
2018-11-04T04:00:36.729Z,96895.72
2018-11-04T04:03:06.193Z,96896.19
2018-11-04T04:05:35.504Z,96898.25
2018-11-04T04:08:04.940Z,96894.38
2018-11-04T04:10:36.266Z,96891.31
2018-11-04T04:13:05.684Z,96887.48
2018-11-04T04:15:35.000Z,96894.70
2018-11-04T04:18:04.865Z,96895.45
2018-11-04T04:20:35.356Z,96893.63
2018-11-04T04:23:04.630Z,96892.13
2018-11-04T04:25:35.681Z,96883.64
2018-11-04T04:28:05.147Z,96891.34
2018-11-04T04:30:34.912Z,96888.20
2018-11-04T04:33:05.374Z,96887.98
2018-11-04T04:35:34.728Z,96894.16
2018-11-04T04:38:03.869Z,96882.84
2018-11-04T04:40:33.587Z,96888.50
2018-11-04T04:43:02.916Z,96883.61
2018-11-04T04:45:32.105Z,96877.17
2018-11-04T04:48:02.365Z,96878.16
2018-11-04T04:50:31.652Z,96874.34
2018-11-04T04:53:00.804Z,96874.88
2018-11-04T04:55:30.014Z,96861.00
2018-11-04T04:57:59.289Z,96869.74
2018-11-04T05:00:28.654Z,96871.28
2018-11-04T05:02:58.008Z,96872.82
2018-11-04T05:05:28.581Z,96867.70
2018-11-04T05:07:58.636Z,96861.27
2018-11-04T05:10:28.005Z,96862.80
2018-11-04T05:12:57.468Z,96866.36
2018-11-04T05:15:26.777Z,96859.95
2018-11-04T05:17:56.316Z,96859.45
2018-11-04T05:20:25.710Z,96847.38
2018-11-04T05:22:55.365Z,96853.03
2018-11-04T05:25:26.975Z,96853.78
2018-11-04T05:27:56.275Z,96848.16
2018-11-04T05:30:26.703Z,96852.52
2018-11-04T05:32:57.382Z,96847.61
2018-11-04T05:35:26.685Z,96841.43
2018-11-04T05:37:57.315Z,96836.00
2018-11-04T05:40:26.648Z,96834.23
2018-11-04T05:42:55.980Z,96827.28
2018-11-04T05:45:25.316Z,96827.81
2018-11-04T05:47:56.315Z,96831.41
2018-11-04T05:50:25.692Z,96823.43
2018-11-04T05:52:56.180Z,96821.89
2018-11-04T05:55:25.705Z,96824.81
2018-11-04T05:57:55.042Z,96818.58
2018-11-04T06:00:24.202Z,96817.83
2018-11-04T06:02:53.531Z,96816.27
2018-11-04T06:05:24.328Z,96820.64
2018-11-04T06:07:54.783Z,96836.02
2018-11-04T06:10:24.110Z,96832.94
2018-11-04T06:12:53.390Z,96836.53
2018-11-04T06:15:24.411Z,96829.32
2018-11-04T06:17:53.735Z,96837.30
2018-11-04T06:20:23.056Z,96849.14
2018-11-04T06:22:52.373Z,96855.02
2018-11-04T06:25:22.957Z,96853.48
2018-11-04T06:27:52.345Z,96852.41
2018-11-04T06:30:23.419Z,96850.92
2018-11-04T06:32:54.838Z,96842.67
2018-11-04T06:35:24.232Z,96844.27
2018-11-04T06:37:53.565Z,96847.56
2018-11-04T06:40:24.516Z,96843.95
2018-11-04T06:42:54.006Z,96844.22
2018-11-04T06:45:23.178Z,96837.28
2018-11-04T06:47:52.466Z,96841.16
2018-11-04T06:50:21.780Z,96832.95
2018-11-04T06:52:51.103Z,96827.91
2018-11-04T06:55:20.416Z,96827.13
2018-11-04T06:57:49.723Z,96833.81
2018-11-04T07:00:20.193Z,96826.64
2018-11-04T07:02:49.557Z,96825.86
2018-11-04T07:05:18.836Z,96821.41
2018-11-04T07:07:48.106Z,96829.66
2018-11-04T07:10:17.444Z,96828.61
2018-11-04T07:12:47.659Z,96841.20
2018-11-04T07:15:18.609Z,96854.31
2018-11-04T07:17:47.745Z,96855.08
2018-11-04T07:20:18.275Z,96857.10
2018-11-04T07:22:47.613Z,96858.14
2018-11-04T07:25:18.925Z,96855.85
2018-11-04T07:27:48.286Z,96853.52
2018-11-04T07:30:17.605Z,96865.35
2018-11-04T07:32:47.702Z,96865.09
2018-11-04T07:35:17.114Z,96867.89
2018-11-04T07:37:52.530Z,96860.73
2018-11-04T07:40:22.461Z,96865.61
2018-11-04T07:42:51.745Z,96856.89
2018-11-04T07:45:21.325Z,96855.88
2018-11-04T07:47:50.750Z,96864.88
2018-11-04T07:50:20.790Z,96870.26
2018-11-04T07:52:50.053Z,96856.39
2018-11-04T07:55:19.379Z,96850.99
2018-11-04T07:57:48.662Z,96856.62
2018-11-04T08:00:17.968Z,96843.81
2018-11-04T08:02:49.490Z,96860.05
2018-11-04T08:05:19.208Z,96848.20
2018-11-04T08:07:48.537Z,96839.48
2018-11-04T08:10:19.499Z,96836.94
2018-11-04T08:12:48.858Z,96836.99
2018-11-04T08:15:19.830Z,96843.91
2018-11-04T08:17:49.408Z,96845.44
2018-11-04T08:20:18.756Z,96847.98
2018-11-04T08:22:47.988Z,96848.25
2018-11-04T08:25:18.643Z,96849.02
2018-11-04T08:27:47.987Z,96857.25
2018-11-04T08:30:18.282Z,96853.12
2018-11-04T08:32:47.601Z,96850.28
2018-11-04T08:35:16.883Z,96852.36
2018-11-04T08:37:46.075Z,96839.48
2018-11-04T08:40:16.425Z,96829.99
2018-11-04T08:42:45.817Z,96825.91
2018-11-04T08:45:16.096Z,96827.19
2018-11-04T08:47:46.042Z,96826.45
2018-11-04T08:50:15.319Z,96820.02
2018-11-04T08:52:45.094Z,96815.87
2018-11-04T08:55:14.423Z,96806.13
2018-11-04T08:57:43.943Z,96787.61
2018-11-04T09:00:14.502Z,96781.41
2018-11-04T09:02:44.428Z,96787.33
2018-11-04T09:05:14.726Z,96790.95
2018-11-04T09:07:44.255Z,96779.64
2018-11-04T09:10:14.924Z,96787.34
2018-11-04T09:12:44.952Z,96780.14
2018-11-04T09:15:14.401Z,96771.92
2018-11-04T09:17:47.043Z,96778.10
2018-11-04T09:20:19.539Z,96781.45
2018-11-04T09:22:48.932Z,96779.37
2018-11-04T09:25:19.626Z,96781.18
2018-11-04T09:27:51.112Z,96784.01
2018-11-04T09:30:22.497Z,96782.69
2018-11-04T09:32:54.755Z,96781.89
2018-11-04T09:35:25.893Z,96775.16
2018-11-04T09:37:55.549Z,96766.31
2018-11-04T09:40:26.305Z,96781.62
2018-11-04T09:42:56.133Z,96782.63
2018-11-04T09:45:26.275Z,96776.21
2018-11-04T09:47:55.436Z,96784.67
2018-11-04T09:50:25.904Z,96778.54
2018-11-04T09:52:56.424Z,96763.83
2018-11-04T09:55:25.820Z,96758.43
2018-11-04T09:57:56.059Z,96764.59
2018-11-04T10:00:25.428Z,96759.19
2018-11-04T10:02:54.757Z,96768.14
2018-11-04T10:05:24.019Z,96767.72
2018-11-04T10:07:53.424Z,96766.98
2018-11-04T10:10:24.218Z,96766.66
2018-11-04T10:12:54.020Z,96761.16
2018-11-04T10:15:24.906Z,96762.98
2018-11-04T10:17:54.308Z,96758.62
2018-11-04T10:20:23.695Z,96751.38
2018-11-04T10:22:54.496Z,96742.31
2018-11-04T10:25:23.735Z,96744.89
2018-11-04T10:27:53.188Z,96726.95
2018-11-04T10:30:24.004Z,96720.84
2018-11-04T10:32:54.877Z,96717.11
2018-11-04T10:35:24.052Z,96712.17
2018-11-04T10:37:53.225Z,96717.63
2018-11-04T10:40:23.020Z,96721.53
2018-11-04T10:42:52.523Z,96718.92
2018-11-04T10:45:21.746Z,96708.75
2018-11-04T10:47:52.848Z,96699.17
2018-11-04T10:50:22.170Z,96692.73
2018-11-04T10:52:51.701Z,96691.67
2018-11-04T10:55:22.991Z,96687.08
2018-11-04T10:57:52.245Z,96697.14
2018-11-04T11:00:27.771Z,96694.86
2018-11-04T11:02:57.087Z,96692.39
2018-11-04T11:05:26.933Z,96686.68
2018-11-04T11:07:58.170Z,96679.53
2018-11-04T11:10:27.554Z,96661.95
2018-11-04T11:12:56.852Z,96651.80
2018-11-04T11:15:26.328Z,96662.33
2018-11-04T11:17:55.801Z,96676.58
2018-11-04T11:20:25.054Z,96679.27
2018-11-04T11:22:54.541Z,96678.16
2018-11-04T11:25:23.797Z,96676.27
2018-11-04T11:27:52.966Z,96678.20
2018-11-04T11:30:24.259Z,96662.14
2018-11-04T11:32:53.524Z,96658.57
2018-11-04T11:35:26.722Z,96663.00
2018-11-04T11:37:56.235Z,96656.32
2018-11-04T11:40:25.496Z,96653.98
2018-11-04T11:42:54.840Z,96655.33
2018-11-04T11:45:25.204Z,96656.12
2018-11-04T11:47:54.640Z,96657.16
2018-11-04T11:50:24.035Z,96653.38
2018-11-04T11:52:54.529Z,96648.72
2018-11-04T11:55:23.898Z,96647.34
2018-11-04T11:57:53.064Z,96639.95
2018-11-04T12:00:22.322Z,96639.91
2018-11-04T12:02:51.768Z,96636.78
2018-11-04T12:05:23.958Z,96635.00
2018-11-04T12:07:53.164Z,96631.67
2018-11-04T12:10:22.418Z,96620.78
2018-11-04T12:12:52.627Z,96625.15
2018-11-04T12:15:24.252Z,96613.21
2018-11-04T12:17:53.731Z,96605.96
2018-11-04T12:20:23.528Z,96602.22
2018-11-04T12:22:52.898Z,96594.96
2018-11-04T12:25:23.826Z,96601.87
2018-11-04T12:27:53.362Z,96601.16
2018-11-04T12:30:22.689Z,96595.48
2018-11-04T12:32:53.228Z,96573.42
2018-11-04T12:35:22.604Z,96572.17
2018-11-04T12:37:52.090Z,96559.98
2018-11-04T12:40:22.963Z,96561.20
2018-11-04T12:42:54.659Z,96553.97
2018-11-04T12:45:23.995Z,96557.00
2018-11-04T12:47:53.692Z,96548.76
2018-11-04T12:50:24.016Z,96548.30
2018-11-04T12:52:57.298Z,96551.22
2018-11-04T12:55:26.533Z,96548.70
2018-11-04T12:57:58.530Z,96546.02
2018-11-04T13:00:28.429Z,96546.47
2018-11-04T13:02:59.256Z,96552.87
2018-11-04T13:05:28.457Z,96553.87
2018-11-04T13:07:59.565Z,96564.08
2018-11-04T13:10:30.715Z,96561.20
2018-11-04T13:13:00.118Z,96545.72
2018-11-04T13:15:29.521Z,96557.70
2018-11-04T13:18:01.376Z,96557.47
2018-11-04T13:20:30.696Z,96544.52
2018-11-04T13:23:00.024Z,96545.26
2018-11-04T13:25:29.491Z,96540.11
2018-11-04T13:27:58.795Z,96528.28
2018-11-04T13:30:28.296Z,96532.05
2018-11-04T13:32:57.556Z,96522.94
2018-11-04T13:35:26.913Z,96521.02
2018-11-04T13:37:56.633Z,96516.90
2018-11-04T13:40:26.430Z,96518.19
2018-11-04T13:42:55.752Z,96517.87
2018-11-04T13:45:26.492Z,96521.48
2018-11-04T13:47:55.988Z,96521.70
2018-11-04T13:50:25.273Z,96506.86
2018-11-04T13:52:57.767Z,96505.76
2018-11-04T13:55:27.177Z,96504.63
2018-11-04T13:57:58.414Z,96501.21
2018-11-04T14:00:27.787Z,96492.18
2018-11-04T14:02:57.278Z,96492.57
2018-11-04T14:05:26.740Z,96500.73
2018-11-04T14:07:56.164Z,96507.22
2018-11-04T14:10:25.571Z,96508.77
2018-11-04T14:12:55.041Z,96516.80
2018-11-04T14:15:24.293Z,96525.63
2018-11-04T14:17:53.799Z,96524.14
2018-11-04T14:20:24.860Z,96514.63
2018-11-04T14:22:54.781Z,96522.61
2018-11-04T14:25:26.684Z,96526.68
2018-11-04T14:27:57.304Z,96510.42
2018-11-04T14:30:26.732Z,96511.95
2018-11-04T14:32:56.202Z,96508.39
2018-11-04T14:35:25.604Z,96511.21
2018-11-04T14:37:55.664Z,96500.06
2018-11-04T14:40:25.117Z,96489.91
2018-11-04T14:42:55.593Z,96482.98
2018-11-04T14:45:29.320Z,96486.95
2018-11-04T14:48:00.684Z,96481.30
2018-11-04T14:50:30.041Z,96480.55
2018-11-04T14:53:01.066Z,96463.97
2018-11-04T14:55:30.426Z,96475.75
2018-11-04T14:57:59.612Z,96474.79
2018-11-04T15:00:31.436Z,96468.22
2018-11-04T15:03:01.609Z,96466.20
2018-11-04T15:05:31.057Z,96457.55
2018-11-04T15:08:02.355Z,96456.50
2018-11-04T15:10:33.926Z,96450.56
2018-11-04T15:13:03.460Z,96454.19
2018-11-04T15:15:32.976Z,96445.92
2018-11-04T15:18:02.341Z,96460.98
2018-11-04T15:20:31.644Z,96456.31
2018-11-04T15:23:01.510Z,96453.00
2018-11-04T15:25:32.150Z,96462.11
2018-11-04T15:28:01.593Z,96465.92
2018-11-04T15:30:30.938Z,96459.75
2018-11-04T15:33:00.805Z,96447.38
2018-11-04T15:35:30.739Z,96452.27
2018-11-04T15:38:00.528Z,96454.80
2018-11-04T15:40:29.889Z,96449.95
2018-11-04T15:42:59.220Z,96444.30
2018-11-04T15:45:29.056Z,96445.59
2018-11-04T15:47:58.203Z,96443.80
2018-11-04T15:50:27.673Z,96446.43
2018-11-04T15:52:57.071Z,96450.57
2018-11-04T15:55:26.754Z,96457.00
2018-11-04T15:57:56.242Z,96457.75
2018-11-04T16:00:25.763Z,96456.72
2018-11-04T16:02:55.331Z,96455.63
2018-11-04T16:05:24.656Z,96454.39
2018-11-04T16:07:54.155Z,96452.32
2018-11-04T16:10:23.479Z,96457.47
2018-11-04T16:12:52.730Z,96455.47
2018-11-04T16:15:27.126Z,96443.06
2018-11-04T16:17:57.364Z,96444.69
2018-11-04T16:20:31.195Z,96455.14
2018-11-04T16:23:00.562Z,96448.20
2018-11-04T16:25:30.355Z,96445.88
2018-11-04T16:27:59.919Z,96445.63
2018-11-04T16:30:30.086Z,96446.22
2018-11-04T16:33:00.442Z,96436.64
2018-11-04T16:35:30.041Z,96436.72
2018-11-04T16:38:01.256Z,96440.58
2018-11-04T16:40:30.512Z,96442.40
2018-11-04T16:43:00.176Z,96443.22
2018-11-04T16:45:29.673Z,96439.33
2018-11-04T16:47:59.187Z,96434.43
2018-11-04T16:50:28.944Z,96428.95
2018-11-04T16:52:58.306Z,96430.61
2018-11-04T16:55:29.003Z,96425.73
2018-11-04T16:57:59.970Z,96421.03
2018-11-04T17:00:29.704Z,96416.39
2018-11-04T17:02:59.015Z,96410.29
2018-11-04T17:05:28.378Z,96413.66
2018-11-04T17:07:57.479Z,96417.83
2018-11-04T17:10:30.285Z,96407.77
2018-11-04T17:12:59.817Z,96406.23
2018-11-04T17:15:30.129Z,96404.44
2018-11-04T17:18:01.601Z,96390.30
2018-11-04T17:20:31.530Z,96396.44
2018-11-04T17:23:03.568Z,96404.41
2018-11-04T17:25:34.420Z,96412.37
2018-11-04T17:28:04.395Z,96406.98
2018-11-04T17:30:34.018Z,96409.00
2018-11-04T17:33:03.477Z,96393.29
2018-11-04T17:35:34.299Z,96391.02
2018-11-04T17:38:03.545Z,96400.80
2018-11-04T17:40:32.965Z,96414.16
2018-11-04T17:43:02.833Z,96416.80
2018-11-04T17:45:33.027Z,96416.77
2018-11-04T17:48:03.185Z,96419.09
2018-11-04T17:50:34.750Z,96413.72
2018-11-04T17:53:04.309Z,96416.80
2018-11-04T17:55:35.099Z,96417.58
2018-11-04T17:58:04.657Z,96413.19
2018-11-04T18:00:34.008Z,96404.41
2018-11-04T18:03:03.353Z,96399.33
2018-11-04T18:05:32.650Z,96410.12
2018-11-04T18:08:02.906Z,96418.08
2018-11-04T18:10:33.163Z,96422.72
2018-11-04T18:13:02.692Z,96424.25
2018-11-04T18:15:32.174Z,96423.75
2018-11-04T18:18:01.655Z,96423.50
2018-11-04T18:20:32.127Z,96405.73
2018-11-04T18:23:01.765Z,96400.84
2018-11-04T18:25:31.236Z,96397.52
2018-11-04T18:28:00.628Z,96390.05
2018-11-04T18:30:30.782Z,96389.47
2018-11-04T18:33:01.836Z,96386.95
2018-11-04T18:35:31.362Z,96388.02
2018-11-04T18:38:02.199Z,96388.52
2018-11-04T18:40:31.495Z,96389.80
2018-11-04T18:43:01.100Z,96378.48
2018-11-04T18:45:30.917Z,96367.41
2018-11-04T18:48:00.282Z,96365.33
2018-11-04T18:50:29.610Z,96367.86
2018-11-04T18:53:00.924Z,96370.69
2018-11-04T18:55:31.602Z,96390.27
2018-11-04T18:58:00.949Z,96387.73
2018-11-04T19:00:31.073Z,96374.38
2018-11-04T19:03:00.507Z,96381.27
2018-11-04T19:05:31.530Z,96360.94
2018-11-04T19:08:01.041Z,96356.74
2018-11-04T19:10:30.538Z,96350.84
2018-11-04T19:13:03.239Z,96345.45
2018-11-04T19:15:32.504Z,96340.86
2018-11-04T19:18:02.366Z,96346.00
2018-11-04T19:20:31.902Z,96355.26
2018-11-04T19:23:01.224Z,96352.73
2018-11-04T19:25:30.516Z,96357.37
2018-11-04T19:27:59.847Z,96364.05
2018-11-04T19:30:29.287Z,96356.84
2018-11-04T19:32:59.963Z,96349.08
2018-11-04T19:35:29.739Z,96341.41
2018-11-04T19:37:59.031Z,96337.99
2018-11-04T19:40:28.266Z,96343.44
2018-11-04T19:42:57.544Z,96339.87
2018-11-04T19:45:26.948Z,96333.83
2018-11-04T19:47:56.150Z,96322.19
2018-11-04T19:50:25.455Z,96324.22
2018-11-04T19:52:56.912Z,96326.66
2018-11-04T19:55:26.191Z,96323.84
2018-11-04T19:57:55.464Z,96319.30
2018-11-04T20:00:24.760Z,96327.47
2018-11-04T20:02:54.013Z,96348.16
2018-11-04T20:05:23.405Z,96355.36
2018-11-04T20:07:52.657Z,96354.07
2018-11-04T20:10:23.195Z,96345.06
2018-11-04T20:12:58.425Z,96345.06
2018-11-04T20:15:27.545Z,96331.61
2018-11-04T20:17:57.183Z,96337.00
2018-11-04T20:20:28.688Z,96344.27
2018-11-04T20:22:59.265Z,96338.64
2018-11-04T20:25:33.633Z,96337.89
2018-11-04T20:28:02.997Z,96333.75
2018-11-04T20:30:32.273Z,96344.81
2018-11-04T20:33:08.749Z,96332.65
2018-11-04T20:35:38.222Z,96332.84
2018-11-04T20:38:09.307Z,96319.49
2018-11-04T20:40:44.181Z,96326.76
2018-11-04T20:43:13.525Z,96324.78
2018-11-04T20:45:42.908Z,96323.20
2018-11-04T20:48:17.517Z,96333.80
2018-11-04T20:50:51.925Z,96330.23
2018-11-04T20:53:21.213Z,96334.59
2018-11-04T20:55:55.997Z,96334.13
2018-11-04T20:58:26.529Z,96334.87
2018-11-04T21:00:55.801Z,96325.59
2018-11-04T21:03:25.133Z,96313.27
2018-11-04T21:05:54.284Z,96305.56
2018-11-04T21:08:27.675Z,96296.36
2018-11-04T21:10:58.165Z,96299.14
2018-11-04T21:13:27.741Z,96301.75
2018-11-04T21:15:58.722Z,96294.08
2018-11-04T21:18:29.689Z,96294.83
2018-11-04T21:20:59.675Z,96278.09
2018-11-04T21:23:29.005Z,96280.73
2018-11-04T21:25:58.274Z,96283.38
2018-11-04T21:28:27.713Z,96277.20
2018-11-04T21:30:56.991Z,96271.56
2018-11-04T21:33:26.209Z,96281.36
2018-11-04T21:35:55.525Z,96278.73
2018-11-04T21:38:25.254Z,96282.12
2018-11-04T21:40:54.609Z,96280.05
2018-11-04T21:43:24.094Z,96289.57
2018-11-04T21:45:53.229Z,96288.26
2018-11-04T21:48:23.309Z,96289.77
2018-11-04T21:50:54.522Z,96280.48
2018-11-04T21:53:23.817Z,96271.17
2018-11-04T21:55:53.197Z,96259.94
2018-11-04T21:58:22.449Z,96267.93
2018-11-04T22:00:52.429Z,96275.39
2018-11-04T22:03:21.971Z,96265.64
2018-11-04T22:05:51.153Z,96261.51
2018-11-04T22:08:21.638Z,96262.05
2018-11-04T22:10:50.970Z,96275.14
2018-11-04T22:13:20.284Z,96266.18
2018-11-04T22:15:50.361Z,96259.23
2018-11-04T22:18:19.736Z,96259.80
2018-11-04T22:20:49.051Z,96258.51
2018-11-04T22:23:19.999Z,96264.67
2018-11-04T22:25:49.226Z,96264.92
2018-11-04T22:28:18.516Z,96266.18
2018-11-04T22:30:48.844Z,96262.08
2018-11-04T22:33:18.136Z,96246.35
2018-11-04T22:35:47.526Z,96252.52
2018-11-04T22:38:16.880Z,96252.34
2018-11-04T22:40:46.658Z,96250.05
2018-11-04T22:43:16.001Z,96239.81
2018-11-04T22:45:46.447Z,96229.55
2018-11-04T22:48:15.689Z,96243.44
2018-11-04T22:50:44.953Z,96242.43
2018-11-04T22:53:14.299Z,96228.06
2018-11-04T22:55:43.582Z,96232.64
2018-11-04T22:58:13.881Z,96231.08
2018-11-04T23:00:45.835Z,96226.75
2018-11-04T23:03:15.152Z,96216.99
2018-11-04T23:06:34.337Z,96212.64
2018-11-04T23:09:04.742Z,96216.99
2018-11-04T23:11:34.074Z,96227.26
2018-11-04T23:14:03.446Z,96243.66
2018-11-04T23:16:32.812Z,96234.65
2018-11-04T23:19:02.864Z,96216.64
2018-11-04T23:21:32.059Z,96204.55
2018-11-04T23:24:03.091Z,96199.42
2018-11-04T23:26:32.357Z,96195.52
2018-11-04T23:29:02.855Z,96186.03
2018-11-04T23:31:32.089Z,96193.53
2018-11-04T23:34:01.288Z,96192.78
2018-11-04T23:36:32.067Z,96197.17
2018-11-04T23:39:01.474Z,96190.26
2018-11-04T23:41:30.824Z,96201.53
2018-11-04T23:44:00.131Z,96217.46
2018-11-04T23:46:29.429Z,96222.28
2018-11-04T23:48:59.900Z,96206.58
2018-11-04T23:51:29.181Z,96205.83
2018-11-04T23:53:58.449Z,96198.09
2018-11-04T23:56:27.714Z,96201.98
2018-11-04T23:58:57.458Z,96193.25
